sensor_id;sensor_type;location;lat;lon;timestamp;P1;durP1;ratioP1;P2;durP2;ratioP2
9729;SDS011;4904;49.152;11.004;2023-03-23T00:02:24;2.65;;;2.05;;
9729;SDS011;4904;49.152;11.004;2023-03-23T00:04:52;2.10;;;1.90;;
9729;SDS011;4904;49.152;11.004;2023-03-23T00:07:19;3.38;;;2.10;;
9729;SDS011;4904;49.152;11.004;2023-03-23T00:09:47;3.10;;;1.85;;
9729;SDS011;4904;49.152;11.004;2023-03-23T00:12:19;3.10;;;2.00;;
9729;SDS011;4904;49.152;11.004;2023-03-23T00:14:55;3.97;;;2.00;;
9729;SDS011;4904;49.152;11.004;2023-03-23T00:17:22;2.97;;;1.88;;
9729;SDS011;4904;49.152;11.004;2023-03-23T00:19:50;1.75;;;1.63;;
9729;SDS011;4904;49.152;11.004;2023-03-23T00:22:18;2.42;;;2.10;;
9729;SDS011;4904;49.152;11.004;2023-03-23T00:24:46;2.25;;;2.00;;
9729;SDS011;4904;49.152;11.004;2023-03-23T00:27:15;2.10;;;1.83;;
9729;SDS011;4904;49.152;11.004;2023-03-23T00:29:43;2.30;;;2.10;;
9729;SDS011;4904;49.152;11.004;2023-03-23T00:32:13;2.17;;;1.85;;
9729;SDS011;4904;49.152;11.004;2023-03-23T00:34:41;2.08;;;1.90;;
9729;SDS011;4904;49.152;11.004;2023-03-23T00:37:11;2.30;;;2.10;;
9729;SDS011;4904;49.152;11.004;2023-03-23T00:39:38;4.30;;;2.40;;
9729;SDS011;4904;49.152;11.004;2023-03-23T00:42:11;2.40;;;2.20;;
9729;SDS011;4904;49.152;11.004;2023-03-23T00:44:42;2.30;;;2.10;;
9729;SDS011;4904;49.152;11.004;2023-03-23T00:47:10;2.88;;;2.35;;
9729;SDS011;4904;49.152;11.004;2023-03-23T00:49:39;3.78;;;2.50;;
9729;SDS011;4904;49.152;11.004;2023-03-23T00:52:06;2.17;;;1.98;;
9729;SDS011;4904;49.152;11.004;2023-03-23T00:54:33;3.15;;;1.98;;
9729;SDS011;4904;49.152;11.004;2023-03-23T00:57:02;3.72;;;2.45;;
9729;SDS011;4904;49.152;11.004;2023-03-23T00:59:29;2.20;;;2.00;;
9729;SDS011;4904;49.152;11.004;2023-03-23T01:01:56;3.97;;;2.13;;
9729;SDS011;4904;49.152;11.004;2023-03-23T01:04:23;2.53;;;2.15;;
9729;SDS011;4904;49.152;11.004;2023-03-23T01:06:54;3.72;;;2.30;;
9729;SDS011;4904;49.152;11.004;2023-03-23T01:09:21;2.60;;;2.20;;
9729;SDS011;4904;49.152;11.004;2023-03-23T01:11:49;2.20;;;2.00;;
9729;SDS011;4904;49.152;11.004;2023-03-23T01:14:17;3.10;;;2.03;;
9729;SDS011;4904;49.152;11.004;2023-03-23T01:16:45;2.60;;;1.95;;
9729;SDS011;4904;49.152;11.004;2023-03-23T01:19:12;2.20;;;2.00;;
9729;SDS011;4904;49.152;11.004;2023-03-23T01:21:40;3.45;;;2.40;;
9729;SDS011;4904;49.152;11.004;2023-03-23T01:24:08;2.75;;;2.20;;
9729;SDS011;4904;49.152;11.004;2023-03-23T01:26:35;2.38;;;2.15;;
9729;SDS011;4904;49.152;11.004;2023-03-23T01:29:03;3.53;;;2.17;;
9729;SDS011;4904;49.152;11.004;2023-03-23T01:31:30;2.92;;;2.20;;
9729;SDS011;4904;49.152;11.004;2023-03-23T01:33:57;2.33;;;2.13;;
9729;SDS011;4904;49.152;11.004;2023-03-23T01:36:24;2.63;;;2.42;;
9729;SDS011;4904;49.152;11.004;2023-03-23T01:38:53;2.47;;;2.28;;
9729;SDS011;4904;49.152;11.004;2023-03-23T01:41:24;6.05;;;2.30;;
9729;SDS011;4904;49.152;11.004;2023-03-23T01:43:58;2.50;;;2.30;;
9729;SDS011;4904;49.152;11.004;2023-03-23T01:46:27;2.40;;;2.20;;
9729;SDS011;4904;49.152;11.004;2023-03-23T01:48:55;2.20;;;2.00;;
9729;SDS011;4904;49.152;11.004;2023-03-23T01:51:24;3.92;;;2.40;;
9729;SDS011;4904;49.152;11.004;2023-03-23T01:53:54;2.50;;;2.25;;
9729;SDS011;4904;49.152;11.004;2023-03-23T01:56:24;2.40;;;2.20;;
9729;SDS011;4904;49.152;11.004;2023-03-23T01:58:55;3.45;;;2.20;;
9729;SDS011;4904;49.152;11.004;2023-03-23T02:01:22;3.15;;;2.25;;
9729;SDS011;4904;49.152;11.004;2023-03-23T02:03:51;3.10;;;2.17;;
9729;SDS011;4904;49.152;11.004;2023-03-23T02:06:20;2.60;;;2.40;;
9729;SDS011;4904;49.152;11.004;2023-03-23T02:08:48;2.63;;;2.42;;
9729;SDS011;4904;49.152;11.004;2023-03-23T02:11:17;3.17;;;2.42;;
9729;SDS011;4904;49.152;11.004;2023-03-23T02:13:46;2.60;;;2.40;;
9729;SDS011;4904;49.152;11.004;2023-03-23T02:16:16;2.58;;;2.38;;
9729;SDS011;4904;49.152;11.004;2023-03-23T02:18:58;4.28;;;2.92;;
9729;SDS011;4904;49.152;11.004;2023-03-23T02:24:51;2.70;;;2.22;;
9729;SDS011;4904;49.152;11.004;2023-03-23T02:27:31;3.60;;;2.45;;
9729;SDS011;4904;49.152;11.004;2023-03-23T02:36:10;2.90;;;2.50;;
9729;SDS011;4904;49.152;11.004;2023-03-23T02:38:44;2.60;;;2.40;;
9729;SDS011;4904;49.152;11.004;2023-03-23T02:41:18;2.60;;;2.40;;
9729;SDS011;4904;49.152;11.004;2023-03-23T02:43:48;3.30;;;2.40;;
9729;SDS011;4904;49.152;11.004;2023-03-23T02:46:16;2.72;;;2.25;;
9729;SDS011;4904;49.152;11.004;2023-03-23T02:48:44;2.50;;;2.30;;
9729;SDS011;4904;49.152;11.004;2023-03-23T02:51:16;3.17;;;2.40;;
9729;SDS011;4904;49.152;11.004;2023-03-23T02:53:44;2.20;;;2.03;;
9729;SDS011;4904;49.152;11.004;2023-03-23T02:56:12;2.53;;;2.25;;
9729;SDS011;4904;49.152;11.004;2023-03-23T02:58:40;2.60;;;2.40;;
9729;SDS011;4904;49.152;11.004;2023-03-23T03:04:18;2.83;;;2.40;;
9729;SDS011;4904;49.152;11.004;2023-03-23T03:06:50;2.53;;;2.30;;
9729;SDS011;4904;49.152;11.004;2023-03-23T03:09:31;3.42;;;2.72;;
9729;SDS011;4904;49.152;11.004;2023-03-23T03:12:07;3.97;;;2.47;;
9729;SDS011;4904;49.152;11.004;2023-03-23T03:14:38;3.20;;;2.50;;
9729;SDS011;4904;49.152;11.004;2023-03-23T03:17:11;2.60;;;2.35;;
9729;SDS011;4904;49.152;11.004;2023-03-23T03:19:48;2.10;;;1.90;;
9729;SDS011;4904;49.152;11.004;2023-03-23T03:22:16;2.55;;;2.30;;
9729;SDS011;4904;49.152;11.004;2023-03-23T03:24:46;3.95;;;2.70;;
9729;SDS011;4904;49.152;11.004;2023-03-23T03:27:14;2.80;;;2.50;;
9729;SDS011;4904;49.152;11.004;2023-03-23T03:29:44;2.63;;;2.42;;
9729;SDS011;4904;49.152;11.004;2023-03-23T03:32:16;6.03;;;4.70;;
9729;SDS011;4904;49.152;11.004;2023-03-23T03:34:45;3.55;;;2.42;;
9729;SDS011;4904;49.152;11.004;2023-03-23T03:37:16;2.20;;;2.00;;
9729;SDS011;4904;49.152;11.004;2023-03-23T03:39:45;1.95;;;1.77;;
9729;SDS011;4904;49.152;11.004;2023-03-23T03:42:12;2.30;;;2.10;;
9729;SDS011;4904;49.152;11.004;2023-03-23T03:44:39;2.83;;;2.10;;
9729;SDS011;4904;49.152;11.004;2023-03-23T03:47:06;2.80;;;1.90;;
9729;SDS011;4904;49.152;11.004;2023-03-23T03:49:33;2.60;;;2.15;;
9729;SDS011;4904;49.152;11.004;2023-03-23T03:52:00;2.30;;;2.03;;
9729;SDS011;4904;49.152;11.004;2023-03-23T03:54:29;2.60;;;2.05;;
9729;SDS011;4904;49.152;11.004;2023-03-23T03:56:55;2.38;;;2.08;;
9729;SDS011;4904;49.152;11.004;2023-03-23T03:59:22;2.78;;;2.20;;
9729;SDS011;4904;49.152;11.004;2023-03-23T04:01:50;4.40;;;2.00;;
9729;SDS011;4904;49.152;11.004;2023-03-23T04:04:19;2.33;;;2.05;;
9729;SDS011;4904;49.152;11.004;2023-03-23T04:06:46;2.75;;;2.00;;
9729;SDS011;4904;49.152;11.004;2023-03-23T04:09:14;2.70;;;2.10;;
9729;SDS011;4904;49.152;11.004;2023-03-23T04:11:42;2.45;;;2.25;;
9729;SDS011;4904;49.152;11.004;2023-03-23T04:14:09;3.05;;;2.03;;
9729;SDS011;4904;49.152;11.004;2023-03-23T04:16:36;3.45;;;2.17;;
9729;SDS011;4904;49.152;11.004;2023-03-23T04:19:03;2.33;;;2.10;;
9729;SDS011;4904;49.152;11.004;2023-03-23T04:21:30;2.38;;;2.08;;
9729;SDS011;4904;49.152;11.004;2023-03-23T04:23:57;2.45;;;2.22;;
9729;SDS011;4904;49.152;11.004;2023-03-23T04:26:25;3.28;;;2.40;;
9729;SDS011;4904;49.152;11.004;2023-03-23T04:28:55;2.42;;;2.22;;
9729;SDS011;4904;49.152;11.004;2023-03-23T04:31:23;2.92;;;2.58;;
9729;SDS011;4904;49.152;11.004;2023-03-23T04:33:51;3.13;;;2.50;;
9729;SDS011;4904;49.152;11.004;2023-03-23T04:36:18;2.90;;;2.65;;
9729;SDS011;4904;49.152;11.004;2023-03-23T04:38:47;3.78;;;2.80;;
9729;SDS011;4904;49.152;11.004;2023-03-23T04:41:15;2.97;;;2.63;;
9729;SDS011;4904;49.152;11.004;2023-03-23T04:43:42;3.45;;;2.70;;
9729;SDS011;4904;49.152;11.004;2023-03-23T04:46:10;3.42;;;3.13;;
9729;SDS011;4904;49.152;11.004;2023-03-23T04:48:43;3.20;;;2.30;;
9729;SDS011;4904;49.152;11.004;2023-03-23T04:51:10;2.90;;;2.65;;
9729;SDS011;4904;49.152;11.004;2023-03-23T04:53:37;3.03;;;2.72;;
9729;SDS011;4904;49.152;11.004;2023-03-23T04:56:06;3.75;;;2.50;;
9729;SDS011;4904;49.152;11.004;2023-03-23T04:58:33;4.45;;;2.70;;
9729;SDS011;4904;49.152;11.004;2023-03-23T05:01:00;3.25;;;2.60;;
9729;SDS011;4904;49.152;11.004;2023-03-23T05:03:28;4.35;;;2.80;;
9729;SDS011;4904;49.152;11.004;2023-03-23T05:05:55;6.05;;;3.15;;
9729;SDS011;4904;49.152;11.004;2023-03-23T05:08:23;3.40;;;3.00;;
9729;SDS011;4904;49.152;11.004;2023-03-23T05:10:50;2.85;;;2.65;;
9729;SDS011;4904;49.152;11.004;2023-03-23T05:13:18;3.38;;;3.08;;
9729;SDS011;4904;49.152;11.004;2023-03-23T05:15:45;4.28;;;2.90;;
9729;SDS011;4904;49.152;11.004;2023-03-23T05:18:12;3.13;;;2.83;;
9729;SDS011;4904;49.152;11.004;2023-03-23T05:20:40;3.40;;;3.10;;
9729;SDS011;4904;49.152;11.004;2023-03-23T05:23:08;5.13;;;3.13;;
9729;SDS011;4904;49.152;11.004;2023-03-23T05:25:36;4.60;;;3.13;;
9729;SDS011;4904;49.152;11.004;2023-03-23T05:28:05;4.57;;;3.00;;
9729;SDS011;4904;49.152;11.004;2023-03-23T05:30:32;2.90;;;2.60;;
9729;SDS011;4904;49.152;11.004;2023-03-23T05:33:00;3.40;;;3.10;;
9729;SDS011;4904;49.152;11.004;2023-03-23T05:35:28;4.07;;;3.05;;
9729;SDS011;4904;49.152;11.004;2023-03-23T05:37:56;4.32;;;3.65;;
9729;SDS011;4904;49.152;11.004;2023-03-23T05:40:23;4.07;;;3.45;;
9729;SDS011;4904;49.152;11.004;2023-03-23T05:42:51;4.15;;;3.35;;
9729;SDS011;4904;49.152;11.004;2023-03-23T05:45:20;4.43;;;3.80;;
9729;SDS011;4904;49.152;11.004;2023-03-23T05:47:47;5.15;;;3.60;;
9729;SDS011;4904;49.152;11.004;2023-03-23T05:50:15;4.07;;;3.67;;
9729;SDS011;4904;49.152;11.004;2023-03-23T05:52:42;4.40;;;3.40;;
9729;SDS011;4904;49.152;11.004;2023-03-23T05:55:11;5.18;;;3.88;;
9729;SDS011;4904;49.152;11.004;2023-03-23T05:57:38;4.18;;;3.55;;
9729;SDS011;4904;49.152;11.004;2023-03-23T06:00:05;4.18;;;3.40;;
9729;SDS011;4904;49.152;11.004;2023-03-23T06:02:44;4.20;;;3.80;;
9729;SDS011;4904;49.152;11.004;2023-03-23T06:05:11;4.85;;;3.78;;
9729;SDS011;4904;49.152;11.004;2023-03-23T06:07:38;4.18;;;3.78;;
9729;SDS011;4904;49.152;11.004;2023-03-23T06:10:06;4.60;;;3.80;;
9729;SDS011;4904;49.152;11.004;2023-03-23T06:12:35;4.05;;;3.60;;
9729;SDS011;4904;49.152;11.004;2023-03-23T06:15:02;7.75;;;3.75;;
9729;SDS011;4904;49.152;11.004;2023-03-23T06:17:31;3.83;;;3.38;;
9729;SDS011;4904;49.152;11.004;2023-03-23T06:19:58;4.15;;;3.38;;
9729;SDS011;4904;49.152;11.004;2023-03-23T06:22:25;3.40;;;3.10;;
9729;SDS011;4904;49.152;11.004;2023-03-23T06:24:53;3.35;;;3.05;;
9729;SDS011;4904;49.152;11.004;2023-03-23T06:27:22;4.45;;;3.63;;
9729;SDS011;4904;49.152;11.004;2023-03-23T06:29:50;6.00;;;3.58;;
9729;SDS011;4904;49.152;11.004;2023-03-23T06:32:17;6.28;;;3.45;;
9729;SDS011;4904;49.152;11.004;2023-03-23T06:34:44;5.85;;;3.53;;
9729;SDS011;4904;49.152;11.004;2023-03-23T06:37:12;4.43;;;3.53;;
9729;SDS011;4904;49.152;11.004;2023-03-23T06:39:40;8.10;;;3.50;;
9729;SDS011;4904;49.152;11.004;2023-03-23T06:42:08;4.15;;;3.42;;
9729;SDS011;4904;49.152;11.004;2023-03-23T06:44:37;3.70;;;3.40;;
9729;SDS011;4904;49.152;11.004;2023-03-23T06:47:05;3.28;;;2.97;;
9729;SDS011;4904;49.152;11.004;2023-03-23T06:49:33;3.92;;;3.20;;
9729;SDS011;4904;49.152;11.004;2023-03-23T06:52:00;4.50;;;3.45;;
9729;SDS011;4904;49.152;11.004;2023-03-23T06:54:28;3.72;;;3.35;;
9729;SDS011;4904;49.152;11.004;2023-03-23T06:56:55;7.03;;;4.38;;
9729;SDS011;4904;49.152;11.004;2023-03-23T06:59:22;3.83;;;3.25;;
9729;SDS011;4904;49.152;11.004;2023-03-23T07:01:49;3.60;;;3.30;;
9729;SDS011;4904;49.152;11.004;2023-03-23T07:04:18;5.97;;;3.33;;
9729;SDS011;4904;49.152;11.004;2023-03-23T07:06:45;4.03;;;3.20;;
9729;SDS011;4904;49.152;11.004;2023-03-23T07:09:13;3.72;;;3.13;;
9729;SDS011;4904;49.152;11.004;2023-03-23T07:11:40;5.68;;;3.50;;
9729;SDS011;4904;49.152;11.004;2023-03-23T07:14:08;3.97;;;3.03;;
9729;SDS011;4904;49.152;11.004;2023-03-23T07:16:35;4.78;;;3.20;;
9729;SDS011;4904;49.152;11.004;2023-03-23T07:19:02;5.43;;;3.85;;
9729;SDS011;4904;49.152;11.004;2023-03-23T07:21:32;3.45;;;3.15;;
9729;SDS011;4904;49.152;11.004;2023-03-23T07:23:59;4.00;;;3.60;;
9729;SDS011;4904;49.152;11.004;2023-03-23T07:26:26;6.32;;;3.15;;
9729;SDS011;4904;49.152;11.004;2023-03-23T07:28:53;4.03;;;3.50;;
9729;SDS011;4904;49.152;11.004;2023-03-23T07:31:19;4.28;;;3.83;;
9729;SDS011;4904;49.152;11.004;2023-03-23T07:33:47;3.40;;;3.10;;
9729;SDS011;4904;49.152;11.004;2023-03-23T07:36:14;4.22;;;3.25;;
9729;SDS011;4904;49.152;11.004;2023-03-23T07:38:42;4.60;;;2.75;;
9729;SDS011;4904;49.152;11.004;2023-03-23T07:41:09;3.63;;;3.30;;
9729;SDS011;4904;49.152;11.004;2023-03-23T07:43:36;4.00;;;3.60;;
9729;SDS011;4904;49.152;11.004;2023-03-23T07:46:03;7.20;;;3.72;;
9729;SDS011;4904;49.152;11.004;2023-03-23T07:48:31;3.63;;;3.15;;
9729;SDS011;4904;49.152;11.004;2023-03-23T07:50:58;4.30;;;3.33;;
9729;SDS011;4904;49.152;11.004;2023-03-23T07:53:25;3.75;;;3.40;;
9729;SDS011;4904;49.152;11.004;2023-03-23T07:55:53;4.05;;;3.65;;
9729;SDS011;4904;49.152;11.004;2023-03-23T07:58:20;6.15;;;3.30;;
9729;SDS011;4904;49.152;11.004;2023-03-23T08:00:47;4.93;;;3.25;;
9729;SDS011;4904;49.152;11.004;2023-03-23T08:03:15;6.38;;;3.10;;
9729;SDS011;4904;49.152;11.004;2023-03-23T08:05:43;4.38;;;3.17;;
9729;SDS011;4904;49.152;11.004;2023-03-23T08:08:10;4.53;;;3.33;;
9729;SDS011;4904;49.152;11.004;2023-03-23T08:10:37;4.63;;;3.00;;
9729;SDS011;4904;49.152;11.004;2023-03-23T08:13:05;4.32;;;2.95;;
9729;SDS011;4904;49.152;11.004;2023-03-23T08:15:33;3.35;;;2.90;;
9729;SDS011;4904;49.152;11.004;2023-03-23T08:18:02;2.67;;;2.40;;
9729;SDS011;4904;49.152;11.004;2023-03-23T08:20:30;2.90;;;2.45;;
9729;SDS011;4904;49.152;11.004;2023-03-23T08:22:57;2.70;;;2.50;;
9729;SDS011;4904;49.152;11.004;2023-03-23T08:25:26;2.88;;;2.40;;
9729;SDS011;4904;49.152;11.004;2023-03-23T08:27:56;3.75;;;2.60;;
9729;SDS011;4904;49.152;11.004;2023-03-23T08:30:25;3.92;;;2.70;;
9729;SDS011;4904;49.152;11.004;2023-03-23T08:32:54;2.92;;;2.45;;
9729;SDS011;4904;49.152;11.004;2023-03-23T08:35:21;6.65;;;2.90;;
9729;SDS011;4904;49.152;11.004;2023-03-23T08:37:49;5.35;;;2.60;;
9729;SDS011;4904;49.152;11.004;2023-03-23T08:40:18;3.85;;;2.80;;
9729;SDS011;4904;49.152;11.004;2023-03-23T08:42:46;4.45;;;2.65;;
9729;SDS011;4904;49.152;11.004;2023-03-23T08:45:15;2.60;;;2.40;;
9729;SDS011;4904;49.152;11.004;2023-03-23T08:47:44;2.88;;;2.38;;
9729;SDS011;4904;49.152;11.004;2023-03-23T08:50:12;3.97;;;2.38;;
9729;SDS011;4904;49.152;11.004;2023-03-23T08:52:41;2.70;;;2.33;;
9729;SDS011;4904;49.152;11.004;2023-03-23T08:55:09;3.90;;;2.38;;
9729;SDS011;4904;49.152;11.004;2023-03-23T08:57:36;2.63;;;2.42;;
9729;SDS011;4904;49.152;11.004;2023-03-23T09:00:03;2.60;;;2.40;;
9729;SDS011;4904;49.152;11.004;2023-03-23T09:02:40;2.75;;;2.55;;
9729;SDS011;4904;49.152;11.004;2023-03-23T09:05:09;2.63;;;2.42;;
9729;SDS011;4904;49.152;11.004;2023-03-23T09:07:36;2.88;;;2.58;;
9729;SDS011;4904;49.152;11.004;2023-03-23T09:10:04;2.80;;;2.60;;
9729;SDS011;4904;49.152;11.004;2023-03-23T09:12:32;3.92;;;2.58;;
9729;SDS011;4904;49.152;11.004;2023-03-23T09:15:00;2.53;;;2.33;;
9729;SDS011;4904;49.152;11.004;2023-03-23T09:17:30;3.22;;;2.80;;
9729;SDS011;4904;49.152;11.004;2023-03-23T09:19:57;3.15;;;2.80;;
9729;SDS011;4904;49.152;11.004;2023-03-23T09:22:25;4.43;;;2.70;;
9729;SDS011;4904;49.152;11.004;2023-03-23T09:24:52;3.15;;;2.60;;
9729;SDS011;4904;49.152;11.004;2023-03-23T09:27:19;3.20;;;2.90;;
9729;SDS011;4904;49.152;11.004;2023-03-23T09:29:46;2.55;;;2.22;;
9729;SDS011;4904;49.152;11.004;2023-03-23T09:32:14;2.78;;;2.47;;
9729;SDS011;4904;49.152;11.004;2023-03-23T09:34:41;3.00;;;2.50;;
9729;SDS011;4904;49.152;11.004;2023-03-23T09:37:08;4.22;;;2.55;;
9729;SDS011;4904;49.152;11.004;2023-03-23T09:39:37;2.78;;;2.58;;
9729;SDS011;4904;49.152;11.004;2023-03-23T09:42:08;3.53;;;2.65;;
9729;SDS011;4904;49.152;11.004;2023-03-23T09:44:52;2.78;;;2.58;;
9729;SDS011;4904;49.152;11.004;2023-03-23T09:47:29;3.28;;;2.75;;
9729;SDS011;4904;49.152;11.004;2023-03-23T09:50:06;3.88;;;2.75;;
9729;SDS011;4904;49.152;11.004;2023-03-23T09:52:37;3.58;;;2.40;;
9729;SDS011;4904;49.152;11.004;2023-03-23T09:55:10;2.92;;;2.20;;
9729;SDS011;4904;49.152;11.004;2023-03-23T09:57:43;2.65;;;2.45;;
9729;SDS011;4904;49.152;11.004;2023-03-23T10:00:15;2.80;;;2.50;;
9729;SDS011;4904;49.152;11.004;2023-03-23T10:02:48;4.55;;;2.70;;
9729;SDS011;4904;49.152;11.004;2023-03-23T10:05:23;3.55;;;2.40;;
9729;SDS011;4904;49.152;11.004;2023-03-23T10:07:56;2.55;;;2.35;;
9729;SDS011;4904;49.152;11.004;2023-03-23T10:10:26;3.20;;;2.65;;
9729;SDS011;4904;49.152;11.004;2023-03-23T10:13:03;2.20;;;2.05;;
9729;SDS011;4904;49.152;11.004;2023-03-23T10:15:37;3.78;;;2.55;;
9729;SDS011;4904;49.152;11.004;2023-03-23T10:18:08;3.75;;;2.78;;
9729;SDS011;4904;49.152;11.004;2023-03-23T10:20:42;3.45;;;2.28;;
9729;SDS011;4904;49.152;11.004;2023-03-23T10:23:14;2.28;;;2.08;;
9729;SDS011;4904;49.152;11.004;2023-03-23T10:26:02;3.25;;;2.55;;
9729;SDS011;4904;49.152;11.004;2023-03-23T10:28:35;3.25;;;2.53;;
9729;SDS011;4904;49.152;11.004;2023-03-23T10:31:03;3.53;;;2.42;;
9729;SDS011;4904;49.152;11.004;2023-03-23T10:33:36;3.35;;;2.22;;
9729;SDS011;4904;49.152;11.004;2023-03-23T10:36:08;2.70;;;2.50;;
9729;SDS011;4904;49.152;11.004;2023-03-23T10:38:40;3.15;;;2.30;;
9729;SDS011;4904;49.152;11.004;2023-03-23T10:41:13;4.05;;;2.38;;
9729;SDS011;4904;49.152;11.004;2023-03-23T10:43:43;3.50;;;2.80;;
9729;SDS011;4904;49.152;11.004;2023-03-23T10:46:16;3.22;;;2.40;;
9729;SDS011;4904;49.152;11.004;2023-03-23T10:48:51;2.28;;;2.08;;
9729;SDS011;4904;49.152;11.004;2023-03-23T10:51:23;2.55;;;2.35;;
9729;SDS011;4904;49.152;11.004;2023-03-23T10:53:57;2.13;;;1.92;;
9729;SDS011;4904;49.152;11.004;2023-03-23T10:56:28;1.65;;;1.55;;
9729;SDS011;4904;49.152;11.004;2023-03-23T10:59:10;2.25;;;2.05;;
9729;SDS011;4904;49.152;11.004;2023-03-23T11:01:38;1.83;;;1.58;;
9729;SDS011;4904;49.152;11.004;2023-03-23T11:04:10;2.65;;;1.67;;
9729;SDS011;4904;49.152;11.004;2023-03-23T11:06:42;1.83;;;1.73;;
9729;SDS011;4904;49.152;11.004;2023-03-23T11:09:11;2.15;;;1.60;;
9729;SDS011;4904;49.152;11.004;2023-03-23T11:11:42;3.50;;;1.85;;
9729;SDS011;4904;49.152;11.004;2023-03-23T11:14:15;2.30;;;2.10;;
9729;SDS011;4904;49.152;11.004;2023-03-23T11:16:44;3.38;;;2.20;;
9729;SDS011;4904;49.152;11.004;2023-03-23T11:19:20;2.72;;;2.00;;
9729;SDS011;4904;49.152;11.004;2023-03-23T11:21:49;2.15;;;1.95;;
9729;SDS011;4904;49.152;11.004;2023-03-23T11:24:17;1.90;;;1.70;;
9729;SDS011;4904;49.152;11.004;2023-03-23T11:26:46;2.65;;;1.90;;
9729;SDS011;4904;49.152;11.004;2023-03-23T11:29:14;1.83;;;1.73;;
9729;SDS011;4904;49.152;11.004;2023-03-23T11:31:44;2.00;;;1.90;;
9729;SDS011;4904;49.152;11.004;2023-03-23T11:34:16;2.13;;;1.92;;
9729;SDS011;4904;49.152;11.004;2023-03-23T11:36:47;2.22;;;2.00;;
9729;SDS011;4904;49.152;11.004;2023-03-23T11:39:21;1.83;;;1.73;;
9729;SDS011;4904;49.152;11.004;2023-03-23T11:41:51;1.98;;;1.88;;
9729;SDS011;4904;49.152;11.004;2023-03-23T11:44:19;1.77;;;1.67;;
9729;SDS011;4904;49.152;11.004;2023-03-23T11:46:49;2.20;;;1.98;;
9729;SDS011;4904;49.152;11.004;2023-03-23T11:49:26;1.70;;;1.60;;
9729;SDS011;4904;49.152;11.004;2023-03-23T11:52:01;3.15;;;2.03;;
9729;SDS011;4904;49.152;11.004;2023-03-23T11:54:33;1.90;;;1.80;;
9729;SDS011;4904;49.152;11.004;2023-03-23T11:57:07;2.65;;;2.13;;
9729;SDS011;4904;49.152;11.004;2023-03-23T11:59:37;2.10;;;1.92;;
9729;SDS011;4904;49.152;11.004;2023-03-23T12:02:09;2.10;;;1.90;;
9729;SDS011;4904;49.152;11.004;2023-03-23T12:04:57;2.10;;;1.90;;
9729;SDS011;4904;49.152;11.004;2023-03-23T12:07:37;4.80;;;1.80;;
9729;SDS011;4904;49.152;11.004;2023-03-23T12:10:16;2.20;;;2.00;;
9729;SDS011;4904;49.152;11.004;2023-03-23T12:12:56;2.40;;;2.13;;
9729;SDS011;4904;49.152;11.004;2023-03-23T12:15:33;2.20;;;2.00;;
9729;SDS011;4904;49.152;11.004;2023-03-23T12:18:06;2.03;;;1.83;;
9729;SDS011;4904;49.152;11.004;2023-03-23T12:20:44;2.33;;;2.08;;
9729;SDS011;4904;49.152;11.004;2023-03-23T12:23:24;4.15;;;2.42;;
9729;SDS011;4904;49.152;11.004;2023-03-23T12:25:59;2.35;;;2.00;;
9729;SDS011;4904;49.152;11.004;2023-03-23T12:28:54;2.75;;;2.30;;
9729;SDS011;4904;49.152;11.004;2023-03-23T12:31:42;2.13;;;1.83;;
9729;SDS011;4904;49.152;11.004;2023-03-23T12:34:17;2.30;;;2.10;;
9729;SDS011;4904;49.152;11.004;2023-03-23T12:36:54;3.03;;;1.85;;
9729;SDS011;4904;49.152;11.004;2023-03-23T12:39:39;1.83;;;1.58;;
9729;SDS011;4904;49.152;11.004;2023-03-23T12:42:26;2.75;;;1.90;;
9729;SDS011;4904;49.152;11.004;2023-03-23T12:45:00;1.90;;;1.80;;
9729;SDS011;4904;49.152;11.004;2023-03-23T12:47:36;2.67;;;1.70;;
9729;SDS011;4904;49.152;11.004;2023-03-23T12:50:09;2.03;;;1.83;;
9729;SDS011;4904;49.152;11.004;2023-03-23T12:52:43;2.38;;;1.67;;
9729;SDS011;4904;49.152;11.004;2023-03-23T12:55:16;1.90;;;1.70;;
9729;SDS011;4904;49.152;11.004;2023-03-23T12:57:49;1.80;;;1.70;;
9729;SDS011;4904;49.152;11.004;2023-03-23T13:00:22;2.85;;;2.00;;
9729;SDS011;4904;49.152;11.004;2023-03-23T13:02:53;2.00;;;1.80;;
9729;SDS011;4904;49.152;11.004;2023-03-23T13:05:36;3.05;;;2.25;;
9729;SDS011;4904;49.152;11.004;2023-03-23T13:08:12;1.80;;;1.52;;
9729;SDS011;4904;49.152;11.004;2023-03-23T13:10:43;2.40;;;1.80;;
9729;SDS011;4904;49.152;11.004;2023-03-23T13:13:13;3.15;;;1.63;;
9729;SDS011;4904;49.152;11.004;2023-03-23T13:15:48;2.08;;;1.88;;
9729;SDS011;4904;49.152;11.004;2023-03-23T13:18:25;1.85;;;1.75;;
9729;SDS011;4904;49.152;11.004;2023-03-23T13:21:02;3.95;;;2.40;;
9729;SDS011;4904;49.152;11.004;2023-03-23T13:23:37;2.72;;;2.53;;
9729;SDS011;4904;49.152;11.004;2023-03-23T13:26:07;3.22;;;2.45;;
9729;SDS011;4904;49.152;11.004;2023-03-23T13:28:44;4.00;;;2.30;;
9729;SDS011;4904;49.152;11.004;2023-03-23T13:31:19;2.00;;;1.90;;
9729;SDS011;4904;49.152;11.004;2023-03-23T13:33:51;3.05;;;1.80;;
9729;SDS011;4904;49.152;11.004;2023-03-23T13:36:24;2.15;;;1.95;;
9729;SDS011;4904;49.152;11.004;2023-03-23T13:38:54;4.15;;;2.00;;
9729;SDS011;4904;49.152;11.004;2023-03-23T13:41:22;2.50;;;1.95;;
9729;SDS011;4904;49.152;11.004;2023-03-23T13:43:49;3.90;;;1.92;;
9729;SDS011;4904;49.152;11.004;2023-03-23T13:46:25;2.67;;;2.13;;
9729;SDS011;4904;49.152;11.004;2023-03-23T13:49:05;3.60;;;1.90;;
9729;SDS011;4904;49.152;11.004;2023-03-23T13:51:57;2.08;;;1.90;;
9729;SDS011;4904;49.152;11.004;2023-03-23T13:54:30;2.42;;;2.22;;
9729;SDS011;4904;49.152;11.004;2023-03-23T13:57:18;2.25;;;2.05;;
9729;SDS011;4904;49.152;11.004;2023-03-23T14:00:11;2.60;;;2.40;;
9729;SDS011;4904;49.152;11.004;2023-03-23T14:02:59;3.33;;;2.00;;
9729;SDS011;4904;49.152;11.004;2023-03-23T14:05:30;3.75;;;1.92;;
9729;SDS011;4904;49.152;11.004;2023-03-23T14:08:00;2.22;;;1.85;;
9729;SDS011;4904;49.152;11.004;2023-03-23T14:10:39;2.30;;;2.10;;
9729;SDS011;4904;49.152;11.004;2023-03-23T14:13:11;2.20;;;2.00;;
9729;SDS011;4904;49.152;11.004;2023-03-23T14:15:44;2.45;;;2.25;;
9729;SDS011;4904;49.152;11.004;2023-03-23T14:18:23;2.00;;;1.85;;
9729;SDS011;4904;49.152;11.004;2023-03-23T14:20:53;2.38;;;2.15;;
9729;SDS011;4904;49.152;11.004;2023-03-23T14:23:23;2.35;;;2.10;;
9729;SDS011;4904;49.152;11.004;2023-03-23T14:25:56;2.42;;;1.92;;
9729;SDS011;4904;49.152;11.004;2023-03-23T14:28:32;2.65;;;2.30;;
9729;SDS011;4904;49.152;11.004;2023-03-23T14:31:04;2.47;;;2.10;;
9729;SDS011;4904;49.152;11.004;2023-03-23T14:33:37;2.30;;;2.10;;
9729;SDS011;4904;49.152;11.004;2023-03-23T14:36:07;2.22;;;2.03;;
9729;SDS011;4904;49.152;11.004;2023-03-23T14:38:34;2.85;;;1.98;;
9729;SDS011;4904;49.152;11.004;2023-03-23T14:41:02;1.85;;;1.75;;
9729;SDS011;4904;49.152;11.004;2023-03-23T14:43:30;2.95;;;1.90;;
9729;SDS011;4904;49.152;11.004;2023-03-23T14:46:00;3.88;;;1.98;;
9729;SDS011;4904;49.152;11.004;2023-03-23T14:48:31;3.15;;;2.00;;
9729;SDS011;4904;49.152;11.004;2023-03-23T14:51:00;3.10;;;1.70;;
9729;SDS011;4904;49.152;11.004;2023-03-23T14:53:31;2.25;;;2.00;;
9729;SDS011;4904;49.152;11.004;2023-03-23T14:56:00;2.78;;;2.40;;
9729;SDS011;4904;49.152;11.004;2023-03-23T14:58:29;2.20;;;2.00;;
9729;SDS011;4904;49.152;11.004;2023-03-23T15:00:58;2.60;;;2.00;;
9729;SDS011;4904;49.152;11.004;2023-03-23T15:03:27;2.67;;;2.13;;
9729;SDS011;4904;49.152;11.004;2023-03-23T15:06:00;2.45;;;2.20;;
9729;SDS011;4904;49.152;11.004;2023-03-23T15:08:32;3.25;;;2.08;;
9729;SDS011;4904;49.152;11.004;2023-03-23T15:11:03;2.35;;;1.98;;
9729;SDS011;4904;49.152;11.004;2023-03-23T15:13:33;2.47;;;2.22;;
9729;SDS011;4904;49.152;11.004;2023-03-23T15:16:05;1.90;;;1.60;;
9729;SDS011;4904;49.152;11.004;2023-03-23T15:18:35;3.33;;;2.10;;
9729;SDS011;4904;49.152;11.004;2023-03-23T15:21:18;2.55;;;2.30;;
9729;SDS011;4904;49.152;11.004;2023-03-23T15:23:48;2.50;;;1.98;;
9729;SDS011;4904;49.152;11.004;2023-03-23T15:26:26;2.58;;;1.90;;
9729;SDS011;4904;49.152;11.004;2023-03-23T15:29:03;2.33;;;2.10;;
9729;SDS011;4904;49.152;11.004;2023-03-23T15:31:44;2.53;;;2.33;;
9729;SDS011;4904;49.152;11.004;2023-03-23T15:34:15;3.45;;;2.20;;